sensor_id;sensor_type;location;lat;lon;timestamp;pressure;altitude;pressure_sealevel;temperature;humidity
34197;BME280;36594;45.192;5.722;2023-02-13T00:00:33;101004.99;;;23.23;30.83
34197;BME280;36594;45.192;5.722;2023-02-13T00:03:21;101004.14;;;23.22;30.81
34197;BME280;36594;45.192;5.722;2023-02-13T00:06:10;101002.77;;;23.22;30.81
34197;BME280;36594;45.192;5.722;2023-02-13T00:08:58;101001.33;;;23.09;30.97
34197;BME280;36594;45.192;5.722;2023-02-13T00:11:46;101003.09;;;23.06;31.02
34197;BME280;36594;45.192;5.722;2023-02-13T00:14:37;101000.11;;;23.01;31.00
34197;BME280;36594;45.192;5.722;2023-02-13T00:17:25;101008.75;;;22.98;31.09
34197;BME280;36594;45.192;5.722;2023-02-13T00:20:14;101008.20;;;22.99;31.09
34197;BME280;36594;45.192;5.722;2023-02-13T00:23:02;101008.54;;;23.00;31.10
34197;BME280;36594;45.192;5.722;2023-02-13T00:25:51;101015.39;;;23.00;31.09
34197;BME280;36594;45.192;5.722;2023-02-13T00:28:39;101009.70;;;23.01;31.08
34197;BME280;36594;45.192;5.722;2023-02-13T00:31:27;101009.70;;;23.01;31.03
34197;BME280;36594;45.192;5.722;2023-02-13T00:34:16;101014.54;;;22.99;31.08
34197;BME280;36594;45.192;5.722;2023-02-13T00:37:04;101008.02;;;23.00;31.05
34197;BME280;36594;45.192;5.722;2023-02-13T00:39:52;101014.23;;;22.98;31.02
34197;BME280;36594;45.192;5.722;2023-02-13T00:42:42;101013.90;;;22.97;31.07
34197;BME280;36594;45.192;5.722;2023-02-13T00:45:31;101012.22;;;22.96;31.06
34197;BME280;36594;45.192;5.722;2023-02-13T00:48:19;101013.90;;;22.97;31.06
34197;BME280;36594;45.192;5.722;2023-02-13T00:51:08;101019.72;;;22.98;31.04
34197;BME280;36594;45.192;5.722;2023-02-13T00:53:57;101014.02;;;23.00;31.00
34197;BME280;36594;45.192;5.722;2023-02-13T00:56:45;101013.59;;;22.96;31.01
34197;BME280;36594;45.192;5.722;2023-02-13T00:59:34;101012.22;;;22.96;31.06
34197;BME280;36594;45.192;5.722;2023-02-13T01:02:23;101015.61;;;22.98;31.01
34197;BME280;36594;45.192;5.722;2023-02-13T01:05:12;101019.08;;;22.96;31.02
34197;BME280;36594;45.192;5.722;2023-02-13T01:08:01;101024.22;;;22.95;31.01
34197;BME280;36594;45.192;5.722;2023-02-13T01:10:49;101024.22;;;22.95;31.00
34197;BME280;36594;45.192;5.722;2023-02-13T01:13:38;101023.58;;;22.93;31.04
34197;BME280;36594;45.192;5.722;2023-02-13T01:16:26;101026.19;;;22.91;31.05
34197;BME280;36594;45.192;5.722;2023-02-13T01:19:15;101025.55;;;22.89;31.07
34197;BME280;36594;45.192;5.722;2023-02-13T01:22:03;101030.64;;;22.92;31.03
34197;BME280;36594;45.192;5.722;2023-02-13T01:24:52;101033.16;;;22.93;31.03
34197;BME280;36594;45.192;5.722;2023-02-13T01:27:40;101038.00;;;22.91;31.03
34197;BME280;36594;45.192;5.722;2023-02-13T01:30:29;101039.55;;;22.90;31.04
34197;BME280;36594;45.192;5.722;2023-02-13T01:33:17;101040.66;;;22.95;31.00
34197;BME280;36594;45.192;5.722;2023-02-13T01:36:10;101042.88;;;22.96;30.98
34197;BME280;36594;45.192;5.722;2023-02-13T01:39:00;101037.23;;;22.87;30.99
34197;BME280;36594;45.192;5.722;2023-02-13T01:41:50;101041.78;;;22.90;31.01
34197;BME280;36594;45.192;5.722;2023-02-13T01:44:53;101041.78;;;22.90;31.00
34197;BME280;36594;45.192;5.722;2023-02-13T01:47:52;101040.41;;;22.90;31.06
34197;BME280;36594;45.192;5.722;2023-02-13T01:50:50;101047.25;;;22.90;31.02
34197;BME280;36594;45.192;5.722;2023-02-13T01:53:45;101042.50;;;22.88;31.02
34197;BME280;36594;45.192;5.722;2023-02-13T01:56:41;101047.77;;;22.90;31.03
34197;BME280;36594;45.192;5.722;2023-02-13T01:59:32;101046.95;;;22.89;31.05
34197;BME280;36594;45.192;5.722;2023-02-13T02:02:21;101046.73;;;22.91;31.00
34197;BME280;36594;45.192;5.722;2023-02-13T02:05:12;101048.62;;;22.90;30.97
34197;BME280;36594;45.192;5.722;2023-02-13T02:08:04;101053.47;;;22.88;31.01
34197;BME280;36594;45.192;5.722;2023-02-13T02:10:59;101052.43;;;22.89;31.00
34197;BME280;36594;45.192;5.722;2023-02-13T02:13:48;101047.64;;;22.87;31.00
34197;BME280;36594;45.192;5.722;2023-02-13T02:16:38;101046.27;;;22.87;31.02
34197;BME280;36594;45.192;5.722;2023-02-13T02:22:59;101050.72;;;22.88;31.00
34197;BME280;36594;45.192;5.722;2023-02-13T02:26:07;101049.22;;;22.86;31.00
34197;BME280;36594;45.192;5.722;2023-02-13T02:28:57;101050.80;;;22.84;31.05
34197;BME280;36594;45.192;5.722;2023-02-13T02:31:59;101052.82;;;22.86;31.00
34197;BME280;36594;45.192;5.722;2023-02-13T02:35:08;101042.25;;;22.83;31.02
34197;BME280;36594;45.192;5.722;2023-02-13T02:41:29;101052.17;;;22.84;31.04
34197;BME280;36594;45.192;5.722;2023-02-13T02:44:41;101050.67;;;22.82;31.01
34197;BME280;36594;45.192;5.722;2023-02-13T02:47:58;101047.16;;;22.77;31.09
34197;BME280;36594;45.192;5.722;2023-02-13T02:51:24;101049.56;;;22.76;31.12
34197;BME280;36594;45.192;5.722;2023-02-13T02:57:29;101035.22;;;22.74;31.17
34197;BME280;36594;45.192;5.722;2023-02-13T03:00:22;101040.78;;;22.70;31.18
34197;BME280;36594;45.192;5.722;2023-02-13T03:03:29;101039.72;;;22.71;31.19
34197;BME280;36594;45.192;5.722;2023-02-13T03:06:59;101032.05;;;22.71;31.17
34197;BME280;36594;45.192;5.722;2023-02-13T03:10:02;101031.20;;;22.70;31.19
34197;BME280;36594;45.192;5.722;2023-02-13T03:13:08;101028.77;;;22.71;31.17
34197;BME280;36594;45.192;5.722;2023-02-13T03:16:16;101032.44;;;22.67;31.19
34197;BME280;36594;45.192;5.722;2023-02-13T03:19:57;101035.38;;;22.66;31.21
34197;BME280;36594;45.192;5.722;2023-02-13T03:23:21;101036.41;;;22.65;31.19
34197;BME280;36594;45.192;5.722;2023-02-13T03:31:15;101035.48;;;22.68;31.20
34197;BME280;36594;45.192;5.722;2023-02-13T03:34:04;101033.29;;;22.68;31.17
34197;BME280;36594;45.192;5.722;2023-02-13T03:37:01;101029.19;;;22.68;31.17
34197;BME280;36594;45.192;5.722;2023-02-13T03:43:29;101040.31;;;22.66;31.12
34197;BME280;36594;45.192;5.722;2023-02-13T03:46:19;101045.48;;;22.65;31.14
34197;BME280;36594;45.192;5.722;2023-02-13T03:49:16;101047.71;;;22.66;31.11
34197;BME280;36594;45.192;5.722;2023-02-13T03:52:28;101052.12;;;22.67;31.13
34197;BME280;36594;45.192;5.722;2023-02-13T03:55:20;101049.38;;;22.67;31.10
34197;BME280;36594;45.192;5.722;2023-02-13T03:58:26;101055.38;;;22.66;31.10
34197;BME280;36594;45.192;5.722;2023-02-13T04:01:34;101059.48;;;22.66;31.13
34197;BME280;36594;45.192;5.722;2023-02-13T04:04:38;101056.31;;;22.63;31.14
34197;BME280;36594;45.192;5.722;2023-02-13T04:07:24;101057.81;;;22.65;31.09
34197;BME280;36594;45.192;5.722;2023-02-13T04:10:18;101058.33;;;22.65;31.10
34197;BME280;36594;45.192;5.722;2023-02-13T04:13:19;101056.44;;;22.65;31.10
34197;BME280;36594;45.192;5.722;2023-02-13T04:16:09;101055.59;;;22.65;31.10
34197;BME280;36594;45.192;5.722;2023-02-13T04:19:00;101055.97;;;22.62;31.10
34197;BME280;36594;45.192;5.722;2023-02-13T04:21:54;101055.45;;;22.62;31.11
34197;BME280;36594;45.192;5.722;2023-02-13T04:24:40;101061.14;;;22.61;31.11
34197;BME280;36594;45.192;5.722;2023-02-13T04:27:29;101068.30;;;22.62;31.11
34197;BME280;36594;45.192;5.722;2023-02-13T04:30:17;101064.70;;;22.61;31.09
34197;BME280;36594;45.192;5.722;2023-02-13T04:33:06;101066.75;;;22.63;31.07
34197;BME280;36594;45.192;5.722;2023-02-13T04:35:54;101068.13;;;22.63;31.05
34197;BME280;36594;45.192;5.722;2023-02-13T04:38:43;101073.27;;;22.62;31.08
34197;BME280;36594;45.192;5.722;2023-02-13T04:41:32;101076.00;;;22.62;31.09
34197;BME280;36594;45.192;5.722;2023-02-13T04:44:20;101077.88;;;22.62;31.05
34197;BME280;36594;45.192;5.722;2023-02-13T04:47:09;101075.14;;;22.62;31.06
34197;BME280;36594;45.192;5.722;2023-02-13T04:49:57;101077.88;;;22.62;31.04
34197;BME280;36594;45.192;5.722;2023-02-13T04:55:32;101077.58;;;22.61;31.05
34197;BME280;36594;45.192;5.722;2023-02-13T04:58:21;101072.10;;;22.61;31.05
34197;BME280;36594;45.192;5.722;2023-02-13T05:01:17;101077.58;;;22.61;31.02
34197;BME280;36594;45.192;5.722;2023-02-13T05:04:05;101078.58;;;22.60;30.98
34197;BME280;36594;45.192;5.722;2023-02-13T05:06:54;101080.16;;;22.58;31.01
34197;BME280;36594;45.192;5.722;2023-02-13T05:09:43;101082.38;;;22.59;30.95
34197;BME280;36594;45.192;5.722;2023-02-13T05:12:31;101089.22;;;22.59;30.96
34197;BME280;36594;45.192;5.722;2023-02-13T05:15:20;101082.89;;;22.58;30.96
34197;BME280;36594;45.192;5.722;2023-02-13T05:18:09;101077.92;;;22.58;30.99
34197;BME280;36594;45.192;5.722;2023-02-13T05:20:57;101078.95;;;22.57;30.96
34197;BME280;36594;45.192;5.722;2023-02-13T05:24:04;101081.70;;;22.57;30.96
34197;BME280;36594;45.192;5.722;2023-02-13T05:26:53;101077.45;;;22.54;30.99
34197;BME280;36594;45.192;5.722;2023-02-13T05:29:41;101078.00;;;22.54;31.04
34197;BME280;36594;45.192;5.722;2023-02-13T05:32:30;101078.17;;;22.52;31.04
34197;BME280;36594;45.192;5.722;2023-02-13T05:35:18;101081.26;;;22.53;31.02
34197;BME280;36594;45.192;5.722;2023-02-13T05:38:07;101082.11;;;22.54;31.02
34197;BME280;36594;45.192;5.722;2023-02-13T05:40:58;101080.41;;;22.53;31.01
34197;BME280;36594;45.192;5.722;2023-02-13T05:43:46;101081.77;;;22.53;31.01
34197;BME280;36594;45.192;5.722;2023-02-13T05:46:37;101080.41;;;22.53;31.03
34197;BME280;36594;45.192;5.722;2023-02-13T05:49:26;101081.26;;;22.53;31.00
34197;BME280;36594;45.192;5.722;2023-02-13T05:52:14;101081.26;;;22.53;31.03
34197;BME280;36594;45.192;5.722;2023-02-13T05:55:03;101081.26;;;22.53;31.00
34197;BME280;36594;45.192;5.722;2023-02-13T05:57:56;101081.26;;;22.53;31.00
34197;BME280;36594;45.192;5.722;2023-02-13T06:00:45;101081.77;;;22.53;30.99
34197;BME280;36594;45.192;5.722;2023-02-13T06:03:34;101083.66;;;22.52;31.01
34197;BME280;36594;45.192;5.722;2023-02-13T06:06:22;101082.83;;;22.52;31.04
34197;BME280;36594;45.192;5.722;2023-02-13T06:09:11;101083.66;;;22.52;31.01
34197;BME280;36594;45.192;5.722;2023-02-13T06:11:59;101090.33;;;22.54;30.99
34197;BME280;36594;45.192;5.722;2023-02-13T06:14:47;101086.94;;;22.52;31.01
34197;BME280;36594;45.192;5.722;2023-02-13T06:17:36;101093.45;;;22.51;31.01
34197;BME280;36594;45.192;5.722;2023-02-13T06:20:24;101087.97;;;22.51;31.01
34197;BME280;36594;45.192;5.722;2023-02-13T06:23:13;101093.11;;;22.50;30.99
34197;BME280;36594;45.192;5.722;2023-02-13T06:26:03;101089.34;;;22.51;31.00
34197;BME280;36594;45.192;5.722;2023-02-13T06:28:52;101095.33;;;22.50;31.02
34197;BME280;36594;45.192;5.722;2023-02-13T06:31:41;101094.81;;;22.51;30.98
34197;BME280;36594;45.192;5.722;2023-02-13T06:34:29;101100.94;;;22.53;30.99
34197;BME280;36594;45.192;5.722;2023-02-13T06:37:17;101100.30;;;22.51;31.01
34197;BME280;36594;45.192;5.722;2023-02-13T06:40:08;101103.03;;;22.51;31.00
34197;BME280;36594;45.192;5.722;2023-02-13T06:42:57;101104.61;;;22.49;31.06
34197;BME280;36594;45.192;5.722;2023-02-13T06:45:45;101111.25;;;22.51;31.04
34197;BME280;36594;45.192;5.722;2023-02-13T06:48:34;101108.37;;;22.48;31.02
34197;BME280;36594;45.192;5.722;2023-02-13T06:51:22;101114.50;;;22.50;31.06
34197;BME280;36594;45.192;5.722;2023-02-13T06:54:10;101117.23;;;22.50;31.06
34197;BME280;36594;45.192;5.722;2023-02-13T06:56:59;101119.67;;;22.49;31.05
34197;BME280;36594;45.192;5.722;2023-02-13T06:59:47;101126.69;;;22.48;31.03
34197;BME280;36594;45.192;5.722;2023-02-13T07:02:37;101122.72;;;22.50;30.87
34197;BME280;36594;45.192;5.722;2023-02-13T07:05:25;101129.42;;;22.48;30.10
34197;BME280;36594;45.192;5.722;2023-02-13T07:08:13;101127.47;;;22.52;29.40
34197;BME280;36594;45.192;5.722;2023-02-13T07:11:02;101129.07;;;22.61;28.99
34197;BME280;36594;45.192;5.722;2023-02-13T07:13:51;101128.69;;;22.64;28.70
34197;BME280;36594;45.192;5.722;2023-02-13T07:16:39;101130.19;;;22.67;28.56
34197;BME280;36594;45.192;5.722;2023-02-13T07:19:28;101124.33;;;22.70;28.47
34197;BME280;36594;45.192;5.722;2023-02-13T07:22:16;101128.95;;;22.69;28.43
34197;BME280;36594;45.192;5.722;2023-02-13T07:25:05;101136.59;;;22.74;28.43
34197;BME280;36594;45.192;5.722;2023-02-13T07:27:54;101137.44;;;22.75;28.45
34197;BME280;36594;45.192;5.722;2023-02-13T07:30:42;101133.46;;;22.77;28.39
34197;BME280;36594;45.192;5.722;2023-02-13T07:33:34;101140.83;;;22.77;28.45
34197;BME280;36594;45.192;5.722;2023-02-13T07:36:23;101141.20;;;22.74;28.55
34197;BME280;36594;45.192;5.722;2023-02-13T07:39:11;101136.73;;;22.66;28.72
34197;BME280;36594;45.192;5.722;2023-02-13T07:41:59;101143.51;;;22.70;28.78
34197;BME280;36594;45.192;5.722;2023-02-13T07:44:47;101144.95;;;22.66;28.87
34197;BME280;36594;45.192;5.722;2023-02-13T07:47:36;101145.59;;;22.68;28.93
34197;BME280;36594;45.192;5.722;2023-02-13T07:50:24;101151.25;;;22.66;29.01
34197;BME280;36594;45.192;5.722;2023-02-13T07:53:13;101144.81;;;22.63;29.09
34197;BME280;36594;45.192;5.722;2023-02-13T07:56:06;101152.69;;;22.62;29.10
34197;BME280;36594;45.192;5.722;2023-02-13T07:58:56;101151.97;;;22.64;29.30
34197;BME280;36594;45.192;5.722;2023-02-13T08:01:44;101155.97;;;22.73;29.31
34197;BME280;36594;45.192;5.722;2023-02-13T08:04:33;101153.36;;;22.75;29.27
34197;BME280;36594;45.192;5.722;2023-02-13T08:07:21;101153.09;;;22.70;29.44
34197;BME280;36594;45.192;5.722;2023-02-13T08:10:11;101152.31;;;22.65;29.57
34197;BME280;36594;45.192;5.722;2023-02-13T08:13:18;101154.92;;;22.63;29.62
34197;BME280;36594;45.192;5.722;2023-02-13T08:16:07;101152.22;;;22.59;29.70
34197;BME280;36594;45.192;5.722;2023-02-13T08:18:55;101153.31;;;22.54;29.76
34197;BME280;36594;45.192;5.722;2023-02-13T08:21:43;101151.30;;;22.52;29.82
34197;BME280;36594;45.192;5.722;2023-02-13T08:24:32;101149.59;;;22.51;29.85
34197;BME280;36594;45.192;5.722;2023-02-13T08:27:21;101144.18;;;22.47;29.88
34197;BME280;36594;45.192;5.722;2023-02-13T08:30:11;101144.48;;;22.48;29.92
34197;BME280;36594;45.192;5.722;2023-02-13T08:33:01;101138.36;;;22.46;29.98
34197;BME280;36594;45.192;5.722;2023-02-13T08:35:49;101137.71;;;22.44;30.00
34197;BME280;36594;45.192;5.722;2023-02-13T08:38:38;101137.38;;;22.43;30.05
34197;BME280;36594;45.192;5.722;2023-02-13T08:41:26;101143.19;;;22.44;30.10
34197;BME280;36594;45.192;5.722;2023-02-13T08:44:15;101136.72;;;22.41;30.14
34197;BME280;36594;45.192;5.722;2023-02-13T08:47:04;101137.27;;;22.40;30.17
34197;BME280;36594;45.192;5.722;2023-02-13T08:49:52;101139.02;;;22.37;30.24
34197;BME280;36594;45.192;5.722;2023-02-13T08:52:41;101137.95;;;22.38;30.25
34197;BME280;36594;45.192;5.722;2023-02-13T08:55:29;101136.07;;;22.39;30.26
34197;BME280;36594;45.192;5.722;2023-02-13T08:58:18;101130.59;;;22.39;30.29
34197;BME280;36594;45.192;5.722;2023-02-13T09:01:07;101134.70;;;22.39;30.33
34197;BME280;36594;45.192;5.722;2023-02-13T09:03:56;101136.07;;;22.39;30.37
34197;BME280;36594;45.192;5.722;2023-02-13T09:06:44;101126.18;;;22.38;30.39
34197;BME280;36594;45.192;5.722;2023-02-13T09:09:33;101119.51;;;22.36;30.40
34197;BME280;36594;45.192;5.722;2023-02-13T09:12:21;101121.73;;;22.37;30.43
34197;BME280;36594;45.192;5.722;2023-02-13T09:15:10;101114.55;;;22.36;30.49
34197;BME280;36594;45.192;5.722;2023-02-13T09:17:58;101120.88;;;22.36;30.49
34197;BME280;36594;45.192;5.722;2023-02-13T09:20:46;101118.48;;;22.37;30.49
34197;BME280;36594;45.192;5.722;2023-02-13T09:23:37;101118.34;;;22.35;30.51
34197;BME280;36594;45.192;5.722;2023-02-13T09:26:26;101117.48;;;22.34;30.56
34197;BME280;36594;45.192;5.722;2023-02-13T09:29:14;101111.50;;;22.35;30.53
34197;BME280;36594;45.192;5.722;2023-02-13T09:32:04;101113.72;;;22.35;30.55
34197;BME280;36594;45.192;5.722;2023-02-13T09:34:53;101113.89;;;22.34;30.58
34197;BME280;36594;45.192;5.722;2023-02-13T09:37:41;101113.08;;;22.33;30.63
34197;BME280;36594;45.192;5.722;2023-02-13T09:43:34;101110.84;;;22.33;30.62
34197;BME280;36594;45.192;5.722;2023-02-13T09:46:27;101089.78;;;22.23;30.68
34197;BME280;36594;45.192;5.722;2023-02-13T09:49:17;101105.75;;;22.30;30.70
34197;BME280;36594;45.192;5.722;2023-02-13T09:52:07;101105.41;;;22.29;30.75
34197;BME280;36594;45.192;5.722;2023-02-13T09:54:56;101106.47;;;22.28;30.75
34197;BME280;36594;45.192;5.722;2023-02-13T09:58:07;101104.90;;;22.29;30.72
34197;BME280;36594;45.192;5.722;2023-02-13T10:00:56;101105.75;;;22.30;30.75
34197;BME280;36594;45.192;5.722;2023-02-13T10:03:57;101102.88;;;22.27;30.79
34197;BME280;36594;45.192;5.722;2023-02-13T10:06:45;101101.64;;;22.30;30.76
34197;BME280;36594;45.192;5.722;2023-02-13T10:09:51;101103.66;;;22.32;30.75
34197;BME280;36594;45.192;5.722;2023-02-13T10:12:52;101093.30;;;22.27;30.79
34197;BME280;36594;45.192;5.722;2023-02-13T10:18:57;101087.52;;;22.26;30.82
34197;BME280;36594;45.192;5.722;2023-02-13T10:21:53;101086.66;;;22.26;30.83
34197;BME280;36594;45.192;5.722;2023-02-13T10:25:09;101085.29;;;22.26;30.86
34197;BME280;36594;45.192;5.722;2023-02-13T10:27:59;101080.67;;;22.26;30.83
34197;BME280;36594;45.192;5.722;2023-02-13T10:30:56;101080.53;;;22.24;30.86
34197;BME280;36594;45.192;5.722;2023-02-13T10:33:54;101078.96;;;22.25;30.86
34197;BME280;36594;45.192;5.722;2023-02-13T10:36:44;101075.50;;;22.27;30.87
34197;BME280;36594;45.192;5.722;2023-02-13T10:39:33;101068.66;;;22.27;30.85
34197;BME280;36594;45.192;5.722;2023-02-13T10:42:43;101068.87;;;22.26;30.86
34197;BME280;36594;45.192;5.722;2023-02-13T10:48:52;101062.53;;;22.25;30.91
34197;BME280;36594;45.192;5.722;2023-02-13T10:51:53;101064.11;;;22.24;30.95
34197;BME280;36594;45.192;5.722;2023-02-13T10:54:56;101057.27;;;22.24;30.96
34197;BME280;36594;45.192;5.722;2023-02-13T11:00:57;101053.47;;;22.25;30.97
34197;BME280;36594;45.192;5.722;2023-02-13T11:03:45;101050.59;;;22.22;31.00
34197;BME280;36594;45.192;5.722;2023-02-13T11:07:00;101048.41;;;22.22;31.01
34197;BME280;36594;45.192;5.722;2023-02-13T11:09:37;101044.61;;;22.23;30.99
34197;BME280;36594;45.192;5.722;2023-02-13T11:12:28;101042.21;;;22.24;31.02
34197;BME280;36594;45.192;5.722;2023-02-13T11:15:28;101037.91;;;22.25;30.96
34197;BME280;36594;45.192;5.722;2023-02-13T11:18:18;101035.81;;;22.27;30.96
34197;BME280;36594;45.192;5.722;2023-02-13T11:21:10;101037.52;;;22.28;30.93
34197;BME280;36594;45.192;5.722;2023-02-13T11:23:59;101035.48;;;22.37;30.92
34197;BME280;36594;45.192;5.722;2023-02-13T11:27:05;101031.13;;;22.42;30.82
34197;BME280;36594;45.192;5.722;2023-02-13T11:30:03;101020.95;;;22.47;30.74
34197;BME280;36594;45.192;5.722;2023-02-13T11:35:48;101015.97;;;22.57;30.51
34197;BME280;36594;45.192;5.722;2023-02-13T11:38:37;101018.27;;;22.53;30.50
34197;BME280;36594;45.192;5.722;2023-02-13T11:41:27;101015.10;;;22.60;30.44
34197;BME280;36594;45.192;5.722;2023-02-13T11:44:22;101012.66;;;22.61;30.37
34197;BME280;36594;45.192;5.722;2023-02-13T11:47:10;101011.97;;;22.63;30.33
34197;BME280;36594;45.192;5.722;2023-02-13T11:50:01;101015.23;;;22.63;30.32
34197;BME280;36594;45.192;5.722;2023-02-13T11:53:00;101009.87;;;22.65;30.29
34197;BME280;36594;45.192;5.722;2023-02-13T11:56:10;101008.22;;;22.71;30.27
34197;BME280;36594;45.192;5.722;2023-02-13T11:59:02;101000.42;;;22.68;30.29
34197;BME280;36594;45.192;5.722;2023-02-13T12:05:18;100993.48;;;22.72;30.29
34197;BME280;36594;45.192;5.722;2023-02-13T12:08:08;100995.50;;;22.74;30.27
34197;BME280;36594;45.192;5.722;2023-02-13T12:10:58;100988.40;;;22.69;30.42
34197;BME280;36594;45.192;5.722;2023-02-13T12:13:48;100985.53;;;22.56;30.58
34197;BME280;36594;45.192;5.722;2023-02-13T12:16:42;100988.02;;;22.51;30.75
34197;BME280;36594;45.192;5.722;2023-02-13T12:19:44;100978.82;;;22.48;30.83
34197;BME280;36594;45.192;5.722;2023-02-13T12:22:38;100975.13;;;22.45;30.97
34197;BME280;36594;45.192;5.722;2023-02-13T12:28:32;100963.71;;;22.41;31.13
34197;BME280;36594;45.192;5.722;2023-02-13T12:34:34;100958.11;;;22.39;31.26
34197;BME280;36594;45.192;5.722;2023-02-13T12:46:48;100940.00;;;22.38;31.42
34197;BME280;36594;45.192;5.722;2023-02-13T12:53:02;100936.59;;;22.36;31.47
34197;BME280;36594;45.192;5.722;2023-02-13T12:59:13;100927.55;;;22.35;31.53
34197;BME280;36594;45.192;5.722;2023-02-13T13:02:22;100926.36;;;22.34;31.57
34197;BME280;36594;45.192;5.722;2023-02-13T13:08:26;100916.48;;;22.33;31.61
34197;BME280;36594;45.192;5.722;2023-02-13T13:11:18;100913.41;;;22.32;31.63
34197;BME280;36594;45.192;5.722;2023-02-13T13:14:38;100907.20;;;22.34;31.60
34197;BME280;36594;45.192;5.722;2023-02-13T13:23:40;100890.05;;;22.36;31.65
34197;BME280;36594;45.192;5.722;2023-02-13T13:29:19;100878.58;;;22.36;31.66
34197;BME280;36594;45.192;5.722;2023-02-13T13:32:07;100878.19;;;22.39;31.62
34197;BME280;36594;45.192;5.722;2023-02-13T13:34:57;100872.72;;;22.39;31.66
34197;BME280;36594;45.192;5.722;2023-02-13T13:37:52;100868.09;;;22.40;31.66
34197;BME280;36594;45.192;5.722;2023-02-13T13:41:11;100863.56;;;22.43;31.64
34197;BME280;36594;45.192;5.722;2023-02-13T13:44:02;100862.02;;;22.44;31.63
34197;BME280;36594;45.192;5.722;2023-02-13T13:47:29;100863.17;;;22.46;31.61
34197;BME280;36594;45.192;5.722;2023-02-13T13:50:29;100863.17;;;22.46;31.60
34197;BME280;36594;45.192;5.722;2023-02-13T13:53:19;100858.42;;;22.44;31.65
34197;BME280;36594;45.192;5.722;2023-02-13T13:56:09;100849.88;;;22.43;31.62
34197;BME280;36594;45.192;5.722;2023-02-13T13:58:57;100848.36;;;22.51;31.60
34197;BME280;36594;45.192;5.722;2023-02-13T14:01:46;100845.62;;;22.51;31.63
34197;BME280;36594;45.192;5.722;2023-02-13T14:04:37;100841.84;;;22.52;31.63
34197;BME280;36594;45.192;5.722;2023-02-13T14:07:38;100841.42;;;22.55;31.64
34197;BME280;36594;45.192;5.722;2023-02-13T14:13:32;100830.47;;;22.55;31.68
34197;BME280;36594;45.192;5.722;2023-02-13T14:16:46;100836.41;;;22.58;31.68
34197;BME280;36594;45.192;5.722;2023-02-13T14:19:35;100828.38;;;22.57;31.83
34197;BME280;36594;45.192;5.722;2023-02-13T14:22:30;100823.11;;;22.55;31.95
34197;BME280;36594;45.192;5.722;2023-02-13T14:25:26;100823.32;;;22.54;32.09
34197;BME280;36594;45.192;5.722;2023-02-13T14:28:25;100817.91;;;22.60;32.21
34197;BME280;36594;45.192;5.722;2023-02-13T14:31:21;100813.83;;;22.67;32.10
34197;BME280;36594;45.192;5.722;2023-02-13T14:37:14;100811.92;;;22.85;31.85
34197;BME280;36594;45.192;5.722;2023-02-13T14:43:19;100801.91;;;22.88;31.71
34197;BME280;36594;45.192;5.722;2023-02-13T14:49:32;100802.75;;;22.88;31.57
34197;BME280;36594;45.192;5.722;2023-02-13T14:52:24;100781.97;;;22.83;31.55
34197;BME280;36594;45.192;5.722;2023-02-13T14:58:29;100793.16;;;22.88;31.53
34197;BME280;36594;45.192;5.722;2023-02-13T15:04:17;100795.17;;;22.90;31.42
34197;BME280;36594;45.192;5.722;2023-02-13T15:06:53;100790.76;;;22.89;31.43
34197;BME280;36594;45.192;5.722;2023-02-13T15:09:51;100793.16;;;22.88;31.41
34197;BME280;36594;45.192;5.722;2023-02-13T15:12:40;100782.84;;;22.90;31.38
34197;BME280;36594;45.192;5.722;2023-02-13T15:15:31;100777.58;;;22.89;31.37
34197;BME280;36594;45.192;5.722;2023-02-13T15:18:40;100784.54;;;22.91;31.33
34197;BME280;36594;45.192;5.722;2023-02-13T15:21:29;100781.47;;;22.90;31.30
34197;BME280;36594;45.192;5.722;2023-02-13T15:24:20;100779.98;;;22.88;31.30
34197;BME280;36594;45.192;5.722;2023-02-13T15:27:15;100781.87;;;22.87;31.30
34197;BME280;36594;45.192;5.722;2023-02-13T15:30:13;100785.27;;;22.89;31.25
34197;BME280;36594;45.192;5.722;2023-02-13T15:32:57;100780.31;;;22.89;31.28
34197;BME280;36594;45.192;5.722;2023-02-13T15:35:46;100776.72;;;22.88;31.23
34197;BME280;36594;45.192;5.722;2023-02-13T15:38:36;100780.09;;;22.90;31.21
34197;BME280;36594;45.192;5.722;2023-02-13T15:41:28;100768.95;;;22.92;31.12
34197;BME280;36594;45.192;5.722;2023-02-13T15:44:30;100766.73;;;22.91;31.13
34197;BME280;36594;45.192;5.722;2023-02-13T15:47:16;100770.51;;;22.90;31.12
34197;BME280;36594;45.192;5.722;2023-02-13T15:50:13;100772.21;;;22.91;31.10
34197;BME280;36594;45.192;5.722;2023-02-13T15:52:57;100775.98;;;22.90;31.12
34197;BME280;36594;45.192;5.722;2023-02-13T15:56:01;100769.23;;;22.86;31.15
34197;BME280;36594;45.192;5.722;2023-02-13T15:58:52;100773.47;;;22.89;31.07
34197;BME280;36594;45.192;5.722;2023-02-13T16:01:41;100768.72;;;22.87;31.10
34197;BME280;36594;45.192;5.722;2023-02-13T16:04:32;100767.53;;;22.85;31.06
34197;BME280;36594;45.192;5.722;2023-02-13T16:07:22;100773.13;;;22.88;31.05
34197;BME280;36594;45.192;5.722;2023-02-13T16:10:34;100777.58;;;22.89;31.01
34197;BME280;36594;45.192;5.722;2023-02-13T16:13:14;100781.80;;;22.91;31.01
34197;BME280;36594;45.192;5.722;2023-02-13T16:16:00;100780.44;;;22.91;30.96
34197;BME280;36594;45.192;5.722;2023-02-13T16:18:50;100777.69;;;22.91;30.91
34197;BME280;36594;45.192;5.722;2023-02-13T16:21:38;100778.20;;;22.91;30.91
34197;BME280;36594;45.192;5.722;2023-02-13T16:24:27;100780.44;;;22.91;30.92
34197;BME280;36594;45.192;5.722;2023-02-13T16:27:16;100780.44;;;22.91;30.88
34197;BME280;36594;45.192;5.722;2023-02-13T16:30:15;100784.66;;;22.94;30.82
34197;BME280;36594;45.192;5.722;2023-02-13T16:39:10;100776.19;;;22.82;30.87
34197;BME280;36594;45.192;5.722;2023-02-13T16:41:59;100791.80;;;22.88;30.84